LOWG/GRZ METAR and TAF weather

Enter ICAO airport designator
Station Type Date Time Source
LOWG METAR 2022/10/01 07:20 UTC NOAA

LOWG 010720Z 04003KT 0800 BCFG FEW001 BKN003 13/12 Q1014 NOSIG


Station Type Date Time Source
LOWG Decoded METAR 2022/10/01 07:20 UTC NOAA

Graz-Thalerhof-Flughafen, Austria (LOWG) 47-00N 015-26E 347M
Oct 01, 2022 - 03:20 AM EDT / 2022.10.01 0720 UTC
Wind: from the NE (040 degrees) at 3 MPH (3 KT):0
Visibility: less than 1 mile:0
Sky conditions: mostly cloudy
Weather: patches of fog
Temperature: 55 F (13 C)
Dew Point: 53 F (12 C)
Relative Humidity: 93%
Pressure (altimeter): 29.94 in. Hg (1014 hPa)
ob: LOWG 010720Z 04003KT 0800 BCFG FEW001 BKN003 13/12 Q1014 NOSIG
cycle: 7

Station Type Date Time Source
LOWG TAF 2022/10/01 06:21 UTC NOAA

TAF LOWG 010515Z 0106/0206 VRB04KT 9999 SCT040 TX18/0114Z TN09/0205Z
TEMPO 0106/0108 0800 BCFG BKN003 PROB30
TEMPO 0117/0120 -RA
TEMPO 0120/0206 0500 BCFG BKN003

Example: see airport list